Time;durP1;ratioP1;P1;durP2;ratioP2;P2;SDS_P1;SDS_P2;PMS_P1;PMS_P2;Temp;Humidity;BMP_temperature;BMP_pressure;BME280_temperature;BME280_humidity;BME280_pressure;Samples;Min_cycle;Max_cycle;Signal;HPM_P1;HPM_P2
2022/07/28 00:00:47;;;;;;;0.35;0.35;;;18.10;58.00;;;;;;5064695;28;20044;-67
2022/07/28 00:03:13;;;;;;;0.40;0.40;;;18.00;57.80;;;;;;5046322;28;20389;-68
2022/07/28 00:05:40;;;;;;;0.35;0.35;;;18.10;57.90;;;;;;5044820;28;20389;-67
2022/07/28 00:08:06;;;;;;;0.30;0.30;;;18.10;57.80;;;;;;5049426;28;20032;-67
2022/07/28 00:10:32;;;;;;;0.80;0.40;;;18.10;57.70;;;;;;5041069;28;20508;-67
2022/07/28 00:12:58;;;;;;;0.73;0.40;;;18.10;57.80;;;;;;5045232;28;20032;-67
2022/07/28 00:15:25;;;;;;;0.50;0.45;;;18.10;57.80;;;;;;5048421;28;20411;-67
2022/07/28 00:17:51;;;;;;;0.50;0.50;;;18.00;57.80;;;;;;5051643;28;20029;-67
2022/07/28 00:20:16;;;;;;;1.77;0.50;;;18.10;57.80;;;;;;5052726;28;20021;-67
2022/07/28 00:22:43;;;;;;;7.03;0.47;;;18.00;57.80;;;;;;5052771;28;20546;-67
2022/07/28 00:25:10;;;;;;;0.63;0.40;;;18.00;57.80;;;;;;5054325;28;20477;-67
2022/07/28 00:27:36;;;;;;;0.60;0.40;;;18.00;57.80;;;;;;5054479;28;20520;-67
2022/07/28 00:30:04;;;;;;;0.40;0.40;;;18.00;57.90;;;;;;5043469;28;20032;-68
2022/07/28 00:32:29;;;;;;;0.68;0.43;;;18.00;57.90;;;;;;5048791;28;20032;-67
2022/07/28 00:34:55;;;;;;;0.68;0.38;;;18.00;58.10;;;;;;5052363;28;20036;-67
2022/07/28 00:37:21;;;;;;;0.30;0.30;;;17.90;58.20;;;;;;5042121;28;20079;-67
2022/07/28 00:39:46;;;;;;;0.30;0.30;;;17.80;58.30;;;;;;5068250;28;20037;-68
2022/07/28 00:42:15;;;;;;;3.10;0.90;;;17.80;58.30;;;;;;5053694;28;20029;-68
2022/07/28 00:44:41;;;;;;;0.20;0.20;;;17.80;58.30;;;;;;5054255;28;20022;-69
2022/07/28 00:47:07;;;;;;;1.40;0.40;;;17.80;58.50;;;;;;5047314;28;20120;-68
2022/07/28 00:49:32;;;;;;;0.22;0.22;;;17.80;58.60;;;;;;5052388;28;20075;-68
2022/07/28 00:51:59;;;;;;;1.55;0.55;;;17.80;58.70;;;;;;5053481;28;20037;-67
2022/07/28 00:54:25;;;;;;;0.60;0.52;;;17.80;58.80;;;;;;5054075;28;20439;-68
2022/07/28 00:56:50;;;;;;;0.68;0.68;;;17.70;58.80;;;;;;5040117;28;20045;-68
2022/07/28 00:59:16;;;;;;;1.17;0.80;;;17.70;58.90;;;;;;5051530;28;20699;-68
2022/07/28 01:01:42;;;;;;;0.52;0.30;;;17.70;58.90;;;;;;5041159;28;20387;-68
2022/07/28 01:04:08;;;;;;;0.52;0.47;;;17.70;58.90;;;;;;5052482;28;20040;-68
2022/07/28 01:07:25;;;;;;;0.50;0.35;;;17.70;58.80;;;;;;5052517;28;20531;-68
2022/07/28 01:10:15;;;;;;;0.88;0.45;;;17.70;58.90;;;;;;5007149;28;20036;-68
2022/07/28 01:13:09;;;;;;;1.95;0.80;;;17.70;59.00;;;;;;5047464;28;20488;-68
2022/07/28 01:15:54;;;;;;;0.35;0.30;;;17.60;59.10;;;;;;5025570;28;20045;-68
2022/07/28 01:18:23;;;;;;;0.95;0.43;;;17.60;59.20;;;;;;5051811;28;20035;-68
2022/07/28 01:21:06;;;;;;;1.85;0.30;;;17.50;59.20;;;;;;5048754;28;20135;-68
2022/07/28 01:23:31;;;;;;;1.38;0.50;;;17.50;59.30;;;;;;5051838;28;20021;-70
2022/07/28 01:26:06;;;;;;;1.33;0.68;;;17.50;59.40;;;;;;5062629;28;20369;-68
2022/07/28 01:28:40;;;;;;;0.70;0.50;;;17.50;59.40;;;;;;5052269;28;20090;-69
2022/07/28 01:31:10;;;;;;;0.50;0.40;;;17.40;59.50;;;;;;5047345;28;20036;-68
2022/07/28 01:33:47;;;;;;;0.93;0.50;;;17.40;59.50;;;;;;5053075;28;20387;-68
2022/07/28 01:36:21;;;;;;;2.28;0.50;;;17.40;59.60;;;;;;5046295;28;20452;-67
2022/07/28 01:38:50;;;;;;;2.40;0.55;;;17.40;59.70;;;;;;5052067;28;20447;-68
2022/07/28 01:41:22;;;;;;;0.55;0.55;;;17.30;59.70;;;;;;5049842;28;20427;-68
2022/07/28 01:43:55;;;;;;;1.67;0.52;;;17.30;59.90;;;;;;5046002;28;20154;-68
2022/07/28 01:46:23;;;;;;;0.55;0.47;;;17.20;59.90;;;;;;5044890;28;20045;-69
2022/07/28 01:48:50;;;;;;;0.55;0.50;;;17.10;60.00;;;;;;5048871;28;20797;-68
2022/07/28 01:51:17;;;;;;;3.13;0.63;;;17.20;60.00;;;;;;5041569;28;20064;-68
2022/07/28 01:53:45;;;;;;;0.30;0.30;;;17.10;60.10;;;;;;5041157;28;20041;-68
2022/07/28 01:56:11;;;;;;;0.40;0.40;;;17.10;60.10;;;;;;5060391;28;20417;-68
2022/07/28 01:58:38;;;;;;;0.30;0.30;;;17.10;60.20;;;;;;5047459;28;20072;-68
2022/07/28 02:01:06;;;;;;;0.35;0.35;;;17.10;60.20;;;;;;5052632;28;20574;-68
2022/07/28 02:03:34;;;;;;;0.93;0.50;;;17.10;60.20;;;;;;5051709;28;20115;-68
2022/07/28 02:06:03;;;;;;;1.20;0.65;;;17.00;60.30;;;;;;5052994;28;20113;-68
2022/07/28 02:08:32;;;;;;;0.60;0.60;;;17.00;60.50;;;;;;5046349;28;20029;-68
2022/07/28 02:13:46;;;;;;;1.20;0.68;;;16.90;60.60;;;;;;5033564;28;20047;-67
2022/07/28 02:16:14;;;;;;;0.60;0.50;;;16.90;60.80;;;;;;5048923;28;20033;-67
2022/07/28 02:18:42;;;;;;;0.75;0.40;;;16.80;60.80;;;;;;5061659;28;20033;-68
2022/07/28 02:21:09;;;;;;;1.83;0.60;;;16.80;60.90;;;;;;5047083;28;20033;-67
2022/07/28 02:23:38;;;;;;;0.52;0.50;;;16.70;60.90;;;;;;5065846;28;20044;-67
2022/07/28 02:26:08;;;;;;;0.93;0.63;;;16.70;61.10;;;;;;5052704;28;20440;-67
2022/07/28 02:28:34;;;;;;;0.60;0.30;;;16.70;61.10;;;;;;5050709;28;20021;-67
2022/07/28 02:31:18;;;;;;;2.42;0.55;;;16.70;61.20;;;;;;5052488;28;20369;-67
2022/07/28 02:33:45;;;;;;;0.30;0.30;;;16.70;61.10;;;;;;5050170;28;20037;-67
2022/07/28 02:36:23;;;;;;;0.73;0.52;;;16.60;61.30;;;;;;5052181;28;20040;-67
2022/07/28 02:38:49;;;;;;;0.30;0.30;;;16.60;61.20;;;;;;5045083;28;20492;-67
2022/07/28 02:41:24;;;;;;;0.63;0.47;;;16.60;61.30;;;;;;5043984;28;20036;-67
2022/07/28 02:43:53;;;;;;;0.38;0.38;;;16.60;61.30;;;;;;5066107;28;20025;-67
2022/07/28 02:46:25;;;;;;;0.60;0.50;;;16.60;61.40;;;;;;5052193;28;20103;-67
2022/07/28 02:49:02;;;;;;;0.93;0.82;;;16.50;61.40;;;;;;5050683;28;20433;-67
2022/07/28 02:51:29;;;;;;;3.25;0.30;;;16.50;61.60;;;;;;5051654;28;20031;-67
2022/07/28 02:53:57;;;;;;;4.05;0.75;;;16.50;61.60;;;;;;5048716;28;20079;-66
2022/07/28 02:56:24;;;;;;;0.55;0.55;;;16.50;61.60;;;;;;5067031;28;20033;-67
2022/07/28 02:58:51;;;;;;;0.40;0.30;;;16.50;61.70;;;;;;5063296;28;20048;-66
2022/07/28 03:01:18;;;;;;;0.90;0.68;;;16.40;61.70;;;;;;5050193;28;20338;-66
2022/07/28 03:03:45;;;;;;;1.42;0.45;;;16.50;61.70;;;;;;5050448;28;20037;-66
2022/07/28 03:06:11;;;;;;;0.52;0.50;;;16.50;61.70;;;;;;5051332;28;20033;-66
2022/07/28 03:08:37;;;;;;;0.45;0.43;;;16.50;61.70;;;;;;5048264;28;20594;-66
2022/07/28 03:11:10;;;;;;;4.68;0.80;;;16.40;61.70;;;;;;5050916;28;20056;-66
2022/07/28 03:13:37;;;;;;;1.00;0.55;;;16.40;61.70;;;;;;5050372;28;20424;-66
2022/07/28 03:16:03;;;;;;;0.60;0.60;;;16.40;61.70;;;;;;5051830;28;20055;-67
2022/07/28 03:18:29;;;;;;;0.65;0.30;;;16.40;61.80;;;;;;5050906;28;20065;-67
2022/07/28 03:20:56;;;;;;;0.55;0.50;;;16.40;61.90;;;;;;5059202;28;20519;-67
2022/07/28 03:23:27;;;;;;;0.38;0.30;;;16.40;61.80;;;;;;5050291;28;20029;-67
2022/07/28 03:25:55;;;;;;;6.10;0.60;;;16.40;61.70;;;;;;5050677;28;20028;-67
2022/07/28 03:28:22;;;;;;;0.40;0.40;;;16.30;61.60;;;;;;5051127;28;20278;-67
2022/07/28 03:31:00;;;;;;;0.95;0.40;;;16.40;61.70;;;;;;5058840;28;20087;-67
2022/07/28 03:33:26;;;;;;;1.45;0.57;;;16.40;61.80;;;;;;5048828;28;20029;-67
2022/07/28 03:35:57;;;;;;;0.50;0.30;;;16.40;61.80;;;;;;5047626;28;20021;-67
2022/07/28 03:38:32;;;;;;;0.50;0.50;;;16.40;61.80;;;;;;5045413;28;20043;-67
2022/07/28 03:41:00;;;;;;;0.73;0.57;;;16.40;62.10;;;;;;5043367;28;20388;-67
2022/07/28 03:43:27;;;;;;;0.43;0.43;;;16.40;61.80;;;;;;5048580;28;20981;-67
2022/07/28 03:45:53;;;;;;;0.40;0.40;;;16.30;62.10;;;;;;5046877;28;20510;-68
2022/07/28 03:48:22;;;;;;;0.30;0.30;;;16.30;61.90;;;;;;5049854;28;20025;-68
2022/07/28 03:50:48;;;;;;;0.50;0.40;;;16.30;61.90;;;;;;5049704;28;20487;-68
2022/07/28 03:53:21;;;;;;;0.40;0.40;;;16.30;62.50;;;;;;5049122;28;20100;-68
2022/07/28 03:55:49;;;;;;;0.30;0.30;;;16.30;61.90;;;;;;5046543;28;20119;-68
2022/07/28 03:58:26;;;;;;;0.68;0.50;;;16.30;62.00;;;;;;5066538;28;20012;-68
2022/07/28 04:00:52;;;;;;;0.77;0.70;;;16.30;62.10;;;;;;5037435;28;20037;-68
2022/07/28 04:03:19;;;;;;;0.73;0.73;;;16.20;62.20;;;;;;5048606;28;20025;-68
2022/07/28 04:05:45;;;;;;;0.30;0.30;;;16.20;62.30;;;;;;5044103;28;20025;-68
2022/07/28 04:08:11;;;;;;;2.08;1.02;;;16.20;62.30;;;;;;5041072;28;20538;-68
2022/07/28 04:10:36;;;;;;;1.08;0.60;;;16.20;62.50;;;;;;5040399;28;20038;-68
2022/07/28 04:13:02;;;;;;;0.85;0.68;;;16.20;62.60;;;;;;5041708;28;20025;-68
2022/07/28 04:15:29;;;;;;;0.88;0.30;;;16.20;62.60;;;;;;5041615;28;20037;-68
2022/07/28 04:17:55;;;;;;;0.47;0.30;;;16.20;62.70;;;;;;5047214;28;20066;-69
2022/07/28 04:20:23;;;;;;;0.50;0.50;;;16.20;62.70;;;;;;5050249;28;20022;-69
2022/07/28 04:22:50;;;;;;;0.32;0.32;;;16.20;62.80;;;;;;5050763;28;20041;-68
2022/07/28 04:25:17;;;;;;;1.48;0.50;;;16.20;62.80;;;;;;5049807;28;20029;-69
2022/07/28 04:27:43;;;;;;;1.02;0.63;;;16.20;62.90;;;;;;5050012;28;20094;-67
2022/07/28 04:30:12;;;;;;;1.65;0.57;;;16.20;63.10;;;;;;5044047;28;20104;-67
2022/07/28 04:32:38;;;;;;;0.45;0.45;;;16.20;63.10;;;;;;5042146;28;20029;-67
2022/07/28 04:35:06;;;;;;;0.30;0.30;;;16.30;63.10;;;;;;5045734;28;20029;-67
2022/07/28 04:37:32;;;;;;;1.90;0.55;;;16.30;63.20;;;;;;5046535;28;20176;-67
2022/07/28 04:39:58;;;;;;;0.93;0.52;;;16.40;63.10;;;;;;5049027;28;20112;-67
2022/07/28 04:42:24;;;;;;;0.57;0.50;;;16.40;63.10;;;;;;5050658;28;20491;-67
2022/07/28 04:44:50;;;;;;;0.50;0.50;;;16.40;63.00;;;;;;5047583;28;20044;-68
2022/07/28 04:47:16;;;;;;;0.60;0.50;;;16.50;63.10;;;;;;5042821;28;20029;-67
2022/07/28 04:49:45;;;;;;;1.05;0.68;;;16.50;62.90;;;;;;5047135;28;20624;-67
2022/07/28 04:52:11;;;;;;;1.00;0.50;;;16.60;62.90;;;;;;5046799;28;20025;-68
2022/07/28 04:54:37;;;;;;;0.80;0.47;;;16.70;62.80;;;;;;5044664;28;20037;-67
2022/07/28 04:57:04;;;;;;;0.35;0.35;;;16.70;62.70;;;;;;5048747;28;20098;-67
2022/07/28 04:59:30;;;;;;;1.05;0.40;;;16.70;62.70;;;;;;5054320;28;20037;-67
2022/07/28 05:01:56;;;;;;;0.50;0.50;;;16.70;62.70;;;;;;5041215;28;20056;-67
2022/07/28 05:04:22;;;;;;;0.38;0.38;;;16.70;62.60;;;;;;5052779;28;20029;-67
2022/07/28 05:06:48;;;;;;;0.47;0.47;;;16.70;62.60;;;;;;5050963;28;20048;-67
2022/07/28 05:09:14;;;;;;;0.20;0.20;;;16.70;62.70;;;;;;5068346;28;20052;-67
2022/07/28 05:11:40;;;;;;;0.90;0.63;;;16.80;62.60;;;;;;5051071;28;20037;-67
2022/07/28 05:14:06;;;;;;;0.47;0.45;;;16.80;63.00;;;;;;5051258;28;20033;-67
2022/07/28 05:16:31;;;;;;;0.70;0.57;;;16.90;62.40;;;;;;5052994;28;20033;-67
2022/07/28 05:18:57;;;;;;;0.20;0.20;;;17.00;62.20;;;;;;5053119;28;20040;-67
2022/07/28 05:21:23;;;;;;;4.88;0.85;;;17.10;62.10;;;;;;5044444;28;20033;-67
2022/07/28 05:23:49;;;;;;;1.33;0.30;;;17.10;62.10;;;;;;5052554;28;20029;-67
2022/07/28 05:26:15;;;;;;;0.88;0.50;;;17.10;62.00;;;;;;5047342;28;20021;-67
2022/07/28 05:28:40;;;;;;;1.13;0.93;;;17.00;62.00;;;;;;5051367;28;20400;-67
2022/07/28 05:31:09;;;;;;;0.60;0.50;;;17.10;62.00;;;;;;5052749;28;20033;-67
2022/07/28 05:33:35;;;;;;;0.30;0.30;;;17.10;62.10;;;;;;5052657;28;20038;-67
2022/07/28 05:36:02;;;;;;;1.98;0.68;;;17.10;62.20;;;;;;5051541;28;20056;-67
2022/07/28 05:38:29;;;;;;;0.45;0.40;;;17.20;62.30;;;;;;5052774;28;20033;-67
2022/07/28 05:40:54;;;;;;;0.22;0.22;;;17.30;62.10;;;;;;5052382;28;20565;-67
2022/07/28 05:43:20;;;;;;;0.77;0.47;;;17.30;61.80;;;;;;5053054;28;20099;-67
2022/07/28 05:45:46;;;;;;;2.22;0.20;;;17.40;61.70;;;;;;5050220;28;20025;-67
2022/07/28 05:48:12;;;;;;;0.57;0.30;;;17.50;61.70;;;;;;5051068;28;20040;-67
2022/07/28 05:50:38;;;;;;;0.30;0.30;;;17.50;61.60;;;;;;5065544;28;20025;-67
2022/07/28 05:53:04;;;;;;;0.52;0.52;;;17.50;61.40;;;;;;5052197;28;20464;-67
2022/07/28 05:55:30;;;;;;;0.65;0.63;;;17.60;61.60;;;;;;5049645;28;20052;-67
2022/07/28 05:57:58;;;;;;;0.73;0.30;;;17.60;61.50;;;;;;5068037;28;20029;-67
2022/07/28 06:00:25;;;;;;;0.35;0.35;;;17.70;61.50;;;;;;5051730;28;20166;-67
2022/07/28 06:02:51;;;;;;;0.95;0.45;;;17.70;61.40;;;;;;5052434;28;20029;-67
2022/07/28 06:05:19;;;;;;;0.90;0.50;;;17.80;61.30;;;;;;5042070;28;20098;-67
2022/07/28 06:07:47;;;;;;;1.30;0.50;;;17.80;61.50;;;;;;5051682;28;20041;-67
2022/07/28 06:10:16;;;;;;;0.70;0.52;;;17.80;61.30;;;;;;5041218;28;20769;-67
2022/07/28 06:12:43;;;;;;;1.08;0.60;;;17.90;61.20;;;;;;5052223;28;20463;-66
2022/07/28 06:15:13;;;;;;;0.90;0.30;;;18.00;61.00;;;;;;5051751;28;20345;-66
2022/07/28 06:17:40;;;;;;;0.43;0.43;;;18.00;60.90;;;;;;5052697;28;20029;-66
2022/07/28 06:20:06;;;;;;;4.45;0.60;;;18.00;61.00;;;;;;5051591;28;20033;-67
2022/07/28 06:22:47;;;;;;;0.40;0.40;;;18.10;61.00;;;;;;5067913;28;20033;-67
2022/07/28 06:25:23;;;;;;;0.52;0.30;;;18.10;60.90;;;;;;5051062;28;20099;-67
2022/07/28 06:27:51;;;;;;;0.73;0.30;;;18.20;60.80;;;;;;5065143;28;20035;-67
2022/07/28 06:30:17;;;;;;;0.47;0.47;;;18.20;60.60;;;;;;5051588;28;20033;-67
2022/07/28 06:32:44;;;;;;;0.32;0.30;;;18.30;60.40;;;;;;5050169;28;20513;-66
2022/07/28 06:35:13;;;;;;;0.50;0.50;;;18.30;60.30;;;;;;5050220;28;20480;-66
2022/07/28 06:37:39;;;;;;;0.90;0.50;;;18.40;60.40;;;;;;5058366;28;20029;-67
2022/07/28 06:40:06;;;;;;;0.30;0.30;;;18.50;60.30;;;;;;5046889;28;20280;-66
2022/07/28 06:42:32;;;;;;;0.80;0.47;;;18.50;60.20;;;;;;5060834;28;20061;-66
2022/07/28 06:44:57;;;;;;;0.47;0.32;;;18.60;60.10;;;;;;5041823;28;20119;-67
2022/07/28 06:47:23;;;;;;;0.85;0.50;;;18.80;60.00;;;;;;5042834;28;20557;-66
2022/07/28 06:49:49;;;;;;;1.58;0.90;;;18.90;59.70;;;;;;5055771;28;20123;-67
2022/07/28 06:52:19;;;;;;;0.43;0.43;;;19.00;59.50;;;;;;5041951;28;20055;-67
2022/07/28 06:54:45;;;;;;;1.42;0.38;;;19.10;59.20;;;;;;5048795;28;20013;-67
2022/07/28 06:57:12;;;;;;;0.93;0.30;;;19.10;59.00;;;;;;5043788;28;20084;-67
2022/07/28 06:59:38;;;;;;;0.90;0.40;;;19.20;58.80;;;;;;5043792;28;20045;-67
2022/07/28 07:02:04;;;;;;;2.20;0.95;;;19.20;58.80;;;;;;5040738;28;20044;-66
2022/07/28 07:04:30;;;;;;;0.20;0.20;;;19.30;58.80;;;;;;5041947;28;20033;-67
2022/07/28 07:06:55;;;;;;;0.40;0.40;;;19.30;58.70;;;;;;5045695;28;20113;-67
2022/07/28 07:09:21;;;;;;;0.40;0.40;;;19.30;58.50;;;;;;5045811;28;20067;-67
2022/07/28 07:11:46;;;;;;;4.38;0.52;;;19.40;58.30;;;;;;5064586;28;20053;-67
2022/07/28 07:14:12;;;;;;;0.32;0.32;;;19.40;58.20;;;;;;5049000;28;20031;-67
2022/07/28 07:16:38;;;;;;;0.52;0.40;;;19.50;58.10;;;;;;5049653;28;20036;-67
2022/07/28 07:19:04;;;;;;;1.27;0.30;;;19.50;57.90;;;;;;5043580;28;20116;-68
2022/07/28 07:21:29;;;;;;;0.52;0.52;;;19.50;57.20;;;;;;5051404;28;20045;-69
2022/07/28 07:23:55;;;;;;;0.30;0.30;;;19.50;56.90;;;;;;5050420;28;20510;-68
2022/07/28 07:26:21;;;;;;;0.30;0.30;;;19.50;57.00;;;;;;5045482;28;20151;-68
2022/07/28 07:28:47;;;;;;;0.60;0.47;;;19.50;56.90;;;;;;5049877;28;20029;-67
2022/07/28 07:31:12;;;;;;;0.65;0.30;;;19.60;56.80;;;;;;5045849;28;20040;-68
2022/07/28 07:33:38;;;;;;;0.63;0.40;;;19.60;56.40;;;;;;5065554;28;20124;-68
2022/07/28 07:36:04;;;;;;;0.40;0.38;;;19.70;56.30;;;;;;5050996;28;20044;-67
2022/07/28 07:38:30;;;;;;;0.28;0.28;;;19.80;56.20;;;;;;5046233;28;20086;-69
2022/07/28 07:40:56;;;;;;;0.50;0.40;;;19.90;56.00;;;;;;5044397;28;20583;-68
2022/07/28 07:43:22;;;;;;;0.40;0.32;;;20.10;55.80;;;;;;5047031;28;20419;-68
2022/07/28 07:45:48;;;;;;;0.30;0.22;;;20.20;55.60;;;;;;5052615;28;20040;-68
2022/07/28 07:48:13;;;;;;;0.30;0.30;;;20.30;55.40;;;;;;5053639;28;20040;-69
2022/07/28 07:50:39;;;;;;;0.30;0.30;;;20.40;55.20;;;;;;5050431;28;20048;-68
2022/07/28 07:53:05;;;;;;;0.30;0.30;;;20.40;54.70;;;;;;5051708;28;20029;-68
2022/07/28 07:55:30;;;;;;;2.72;0.30;;;20.40;55.20;;;;;;5050251;28;20041;-69
2022/07/28 07:57:56;;;;;;;0.30;0.30;;;20.50;54.60;;;;;;5047735;28;20041;-68
2022/07/28 08:00:22;;;;;;;1.55;0.30;;;20.40;54.70;;;;;;5051267;28;20032;-67
2022/07/28 08:02:48;;;;;;;0.35;0.30;;;20.40;54.10;;;;;;5044624;28;21576;-67
2022/07/28 08:05:15;;;;;;;0.40;0.40;;;20.50;54.20;;;;;;5050235;28;20055;-68
2022/07/28 08:07:41;;;;;;;0.20;0.20;;;20.50;54.20;;;;;;5047791;28;20330;-68
2022/07/28 08:10:07;;;;;;;1.80;0.50;;;20.60;53.70;;;;;;5049109;28;20473;-68
2022/07/28 08:12:33;;;;;;;0.38;0.32;;;20.70;53.40;;;;;;5040832;28;20083;-68
2022/07/28 08:14:59;;;;;;;1.75;0.35;;;20.70;53.00;;;;;;5048250;28;20114;-68
2022/07/28 08:17:24;;;;;;;0.20;0.20;;;20.70;53.00;;;;;;5046131;28;20049;-67
2022/07/28 08:19:50;;;;;;;0.35;0.35;;;20.70;53.00;;;;;;5060747;28;20091;-69
2022/07/28 08:22:16;;;;;;;0.47;0.43;;;20.70;52.70;;;;;;5045714;28;20037;-69
2022/07/28 08:24:41;;;;;;;1.17;0.50;;;20.60;52.40;;;;;;5043285;28;20029;-67
2022/07/28 08:27:08;;;;;;;0.50;0.30;;;20.60;52.50;;;;;;5044085;28;20071;-68
2022/07/28 08:29:33;;;;;;;0.38;0.30;;;20.70;52.60;;;;;;5043477;28;20128;-67
2022/07/28 08:32:03;;;;;;;2.20;0.50;;;20.70;52.10;;;;;;5060957;28;20544;-68
2022/07/28 08:34:29;;;;;;;0.30;0.30;;;20.70;52.30;;;;;;5043253;28;20045;-68
2022/07/28 08:36:55;;;;;;;0.20;0.20;;;20.80;52.30;;;;;;5062382;28;20039;-69
2022/07/28 08:39:21;;;;;;;0.30;0.30;;;21.00;52.00;;;;;;5056348;28;20033;-68
2022/07/28 08:42:07;;;;;;;0.28;0.28;;;21.10;51.50;;;;;;5053403;28;20551;-67
2022/07/28 08:44:57;;;;;;;0.30;0.30;;;21.30;51.20;;;;;;5046947;28;20057;-69
2022/07/28 08:47:26;;;;;;;1.10;0.65;;;21.40;51.10;;;;;;5049330;28;20100;-69
2022/07/28 08:49:53;;;;;;;0.30;0.30;;;21.60;50.80;;;;;;5045536;28;20491;-69
2022/07/28 08:52:23;;;;;;;0.30;0.28;;;21.70;50.70;;;;;;5046666;28;20041;-69
2022/07/28 08:54:49;;;;;;;0.45;0.43;;;21.80;50.40;;;;;;5042135;28;20037;-69
2022/07/28 08:57:25;;;;;;;2.08;0.40;;;21.90;50.00;;;;;;5047116;28;20033;-69
2022/07/28 08:59:51;;;;;;;0.40;0.40;;;22.00;50.10;;;;;;5046248;28;20475;-69
2022/07/28 09:02:17;;;;;;;0.20;0.20;;;22.10;49.60;;;;;;5052645;28;20033;-69
2022/07/28 09:04:45;;;;;;;0.30;0.30;;;22.20;49.30;;;;;;5064428;28;20021;-67
2022/07/28 09:07:11;;;;;;;0.20;0.20;;;22.20;48.90;;;;;;5051924;28;20061;-69
2022/07/28 09:09:38;;;;;;;0.45;0.45;;;22.30;49.00;;;;;;5050740;28;20403;-68
2022/07/28 09:12:04;;;;;;;0.40;0.40;;;22.40;48.80;;;;;;5052485;28;20123;-69
2022/07/28 09:14:31;;;;;;;0.20;0.20;;;22.50;48.20;;;;;;5052467;28;20376;-69
2022/07/28 09:17:00;;;;;;;1.35;0.50;;;22.50;48.00;;;;;;5047478;28;20028;-67
2022/07/28 09:19:27;;;;;;;1.25;0.32;;;22.60;48.20;;;;;;5067398;28;20041;-69
2022/07/28 09:21:54;;;;;;;0.47;0.47;;;22.60;48.10;;;;;;5053225;28;20491;-69
2022/07/28 09:24:38;;;;;;;0.85;0.52;;;22.70;48.00;;;;;;5052137;28;20531;-69
2022/07/28 09:27:09;;;;;;;1.92;0.35;;;22.70;48.00;;;;;;5063296;28;20427;-69
2022/07/28 09:29:37;;;;;;;5.03;0.38;;;22.80;47.70;;;;;;5046180;28;20021;-68
2022/07/28 09:32:04;;;;;;;0.20;0.20;;;22.80;47.70;;;;;;5053208;28;20032;-68
2022/07/28 09:34:50;;;;;;;0.30;0.30;;;22.80;47.70;;;;;;5047879;28;20457;-69
2022/07/28 09:37:26;;;;;;;0.25;0.25;;;22.90;47.20;;;;;;5052133;28;20492;-69
2022/07/28 09:39:53;;;;;;;0.52;0.30;;;22.80;47.30;;;;;;5052644;28;20100;-69
2022/07/28 09:42:20;;;;;;;0.32;0.30;;;22.70;47.40;;;;;;5051429;28;20025;-69
2022/07/28 09:45:06;;;;;;;0.20;0.20;;;22.80;46.70;;;;;;5050023;28;20029;-69
2022/07/28 09:47:33;;;;;;;0.38;0.30;;;22.90;46.70;;;;;;5046707;28;20021;-69
2022/07/28 09:50:00;;;;;;;0.20;0.20;;;23.00;46.40;;;;;;5049334;28;20028;-69
2022/07/28 09:52:37;;;;;;;0.30;0.30;;;23.20;45.80;;;;;;5049569;28;20710;-69
2022/07/28 09:55:08;;;;;;;0.20;0.20;;;23.30;46.00;;;;;;5049219;28;20029;-69
2022/07/28 09:57:35;;;;;;;0.10;0.10;;;23.50;46.00;;;;;;5051670;28;20037;-68
2022/07/28 10:00:08;;;;;;;0.30;0.30;;;23.60;45.70;;;;;;5052459;28;20428;-69
2022/07/28 10:02:34;;;;;;;0.28;0.28;;;23.80;45.60;;;;;;5050904;28;20037;-69
2022/07/28 10:05:00;;;;;;;1.92;0.30;;;23.90;45.30;;;;;;5049991;28;20033;-68
2022/07/28 10:07:30;;;;;;;0.30;0.30;;;24.00;45.00;;;;;;5051934;28;20037;-68
2022/07/28 10:10:06;;;;;;;0.30;0.30;;;24.10;44.80;;;;;;5047031;28;20071;-69
2022/07/28 10:12:36;;;;;;;0.45;0.30;;;24.10;44.60;;;;;;5054326;28;20025;-69
2022/07/28 10:17:57;;;;;;;0.20;0.20;;;24.10;44.60;;;;;;5065592;28;20097;-69
2022/07/28 10:20:23;;;;;;;0.30;0.30;;;24.20;44.40;;;;;;5044905;28;20025;-69
2022/07/28 10:22:53;;;;;;;0.30;0.30;;;24.40;44.20;;;;;;5048986;28;20702;-69
2022/07/28 10:25:20;;;;;;;0.20;0.20;;;24.60;44.10;;;;;;5044626;28;20477;-68
2022/07/28 10:27:47;;;;;;;0.20;0.20;;;24.70;43.50;;;;;;5047271;28;20025;-68
2022/07/28 10:30:14;;;;;;;0.20;0.20;;;24.80;43.20;;;;;;5045237;28;20664;-68
2022/07/28 10:32:43;;;;;;;0.30;0.30;;;24.90;43.10;;;;;;5050661;28;20174;-68
2022/07/28 10:35:15;;;;;;;1.85;1.15;;;25.10;43.00;;;;;;5026771;28;20349;-68
2022/07/28 10:38:04;;;;;;;0.35;0.30;;;25.20;42.30;;;;;;5064461;28;20060;-68
2022/07/28 10:40:37;;;;;;;0.88;0.60;;;25.10;42.50;;;;;;5050482;28;20376;-68
2022/07/28 10:43:04;;;;;;;0.40;0.40;;;25.10;42.40;;;;;;5067257;28;20407;-68
2022/07/28 10:45:30;;;;;;;0.22;0.22;;;25.10;42.40;;;;;;5047221;28;20033;-68
2022/07/28 10:47:56;;;;;;;0.32;0.32;;;25.10;42.50;;;;;;5050130;28;20037;-68
2022/07/28 10:50:23;;;;;;;0.45;0.30;;;25.20;42.60;;;;;;5047776;28;20040;-68
2022/07/28 10:52:48;;;;;;;0.25;0.25;;;25.40;42.50;;;;;;5050904;28;20036;-68
2022/07/28 10:55:49;;;;;;;0.47;0.47;;;25.50;42.20;;;;;;5049798;28;20041;-67
2022/07/28 10:58:49;;;;;;;0.20;0.20;;;25.60;42.10;;;;;;5050203;28;20107;-67
2022/07/28 11:01:44;;;;;;;0.28;0.28;;;25.70;41.80;;;;;;5049443;28;20122;-66
2022/07/28 11:04:47;;;;;;;0.30;0.30;;;25.90;41.60;;;;;;5041475;28;20057;-66
2022/07/28 11:07:18;;;;;;;0.40;0.40;;;25.90;41.50;;;;;;5048558;28;20040;-66
2022/07/28 11:09:48;;;;;;;1.45;0.60;;;25.90;41.60;;;;;;5049884;28;20029;-66
2022/07/28 11:12:15;;;;;;;0.20;0.20;;;25.90;40.90;;;;;;5050875;28;20051;-67
2022/07/28 11:14:41;;;;;;;0.45;0.35;;;25.90;41.10;;;;;;5051709;28;20112;-66
2022/07/28 11:17:06;;;;;;;0.40;0.40;;;26.00;40.80;;;;;;5048388;28;20029;-66
2022/07/28 11:19:44;;;;;;;0.38;0.38;;;26.10;41.00;;;;;;5049746;28;20109;-66
2022/07/28 11:22:17;;;;;;;0.30;0.30;;;26.20;40.70;;;;;;5059001;28;20404;-66
2022/07/28 11:24:59;;;;;;;0.70;0.60;;;26.40;40.80;;;;;;5049555;28;20515;-66
2022/07/28 11:27:41;;;;;;;0.30;0.30;;;26.60;40.30;;;;;;5050305;28;20040;-67
2022/07/28 11:30:30;;;;;;;0.45;0.45;;;26.70;40.20;;;;;;5050578;28;20033;-67
2022/07/28 11:33:03;;;;;;;0.20;0.20;;;26.80;39.80;;;;;;5044934;28;20037;-67
2022/07/28 11:35:30;;;;;;;0.30;0.30;;;26.90;39.70;;;;;;5048153;28;20067;-67
2022/07/28 11:38:02;;;;;;;0.85;0.50;;;27.00;39.90;;;;;;5049966;28;20079;-67
2022/07/28 11:40:29;;;;;;;0.40;0.40;;;27.20;39.70;;;;;;5048430;28;20036;-67
2022/07/28 11:43:21;;;;;;;0.35;0.35;;;27.30;39.40;;;;;;5050107;28;20025;-67
2022/07/28 11:45:48;;;;;;;;;;;27.40;39.20;;;;;;5047861;28;20404;-67
2022/07/28 11:48:20;;;;;;;;;;;27.50;39.00;;;;;;5048830;28;19913;-67
2022/07/28 11:51:18;;;;;;;;;;;27.60;39.00;;;;;;5050855;28;19916;-67
2022/07/28 11:53:45;;;;;;;;;;;27.70;38.80;;;;;;5015300;28;19962;-67
2022/07/28 11:56:12;;;;;;;;;;;27.80;38.00;;;;;;5049226;28;19908;-67
2022/07/28 11:58:38;;;;;;;;;;;27.70;37.50;;;;;;5050050;28;19956;-67
2022/07/28 12:01:11;;;;;;;;;;;27.60;37.20;;;;;;5050014;28;19913;-67
2022/07/28 12:03:39;;;;;;;;;;;27.60;37.90;;;;;;5050082;28;19912;-66
2022/07/28 12:06:05;;;;;;;;;;;27.70;38.40;;;;;;5050985;28;19908;-66
2022/07/28 12:08:51;;;;;;;;;;;27.80;38.20;;;;;;5065492;28;19916;-67
2022/07/28 12:11:16;;;;;;;;;;;27.90;38.00;;;;;;5034147;28;19923;-66
2022/07/28 12:13:42;;;;;;;;;;;28.00;38.40;;;;;;5049274;28;19913;-66
2022/07/28 12:16:08;;;;;;;;;;;28.30;37.70;;;;;;5049924;28;20612;-66
2022/07/28 12:18:34;;;;;;;;;;;28.50;36.90;;;;;;5037101;28;19909;-66
2022/07/28 12:20:59;;;;;;;;;;;28.70;36.70;;;;;;5049238;28;19909;-67
2022/07/28 12:23:32;;;;;;;;;;;28.80;35.60;;;;;;5049624;28;19921;-67
2022/07/28 12:26:00;;;;;;;;;;;28.80;35.10;;;;;;5047711;28;19905;-66
2022/07/28 12:28:28;;;;;;;;;;;29.00;35.20;;;;;;5047732;28;20027;-66
2022/07/28 12:30:54;;;;;;;;;;;29.20;35.70;;;;;;5065081;28;19940;-67
2022/07/28 12:33:24;;;;;;;;;;;29.40;35.80;;;;;;5050224;28;19963;-67
2022/07/28 12:35:55;;;;;;;;;;;29.80;35.80;;;;;;5047967;28;19904;-68
2022/07/28 12:38:25;;;;;;;;;;;29.80;34.60;;;;;;5047411;28;19909;-68
2022/07/28 12:40:52;;;;;;;;;;;29.60;35.00;;;;;;5039369;28;19955;-68
2022/07/28 12:43:18;;;;;;;;;;;29.30;35.20;;;;;;5050246;28;20008;-67
2022/07/28 12:45:44;;;;;;;;;;;29.00;35.40;;;;;;5050932;28;20359;-68
2022/07/28 12:48:10;;;;;;;;;;;28.70;36.00;;;;;;5049593;28;19999;-67
2022/07/28 12:50:36;;;;;;;;;;;28.80;35.80;;;;;;5047692;28;19991;-67
2022/07/28 12:53:10;;;;;;;;;;;28.90;35.50;;;;;;5046980;28;20403;-67
2022/07/28 12:55:36;;;;;;;;;;;29.00;35.50;;;;;;5036996;28;20384;-67
2022/07/28 12:58:02;;;;;;;;;;;29.30;35.40;;;;;;5044897;28;20043;-67
2022/07/28 13:00:33;;;;;;;;;;;29.60;34.90;;;;;;5045238;28;20014;-68
2022/07/28 13:02:59;;;;;;;;;;;29.90;35.40;;;;;;5050438;28;19999;-68
2022/07/28 13:06:23;;;;;;;;;;;30.30;35.20;;;;;;5048559;28;19940;-67
2022/07/28 13:08:24;;;;;;;;;;;30.50;34.70;;;;;;5047344;28;19911;-67
2022/07/28 13:10:51;;;;;;;;;;;30.70;34.30;;;;;;5059174;28;19952;-67